createdAt,value
2019-03-02T00:00:12.358Z,22.80
2019-03-02T00:02:43.496Z,21.90
2019-03-02T00:05:14.125Z,23.00
2019-03-02T00:07:47.689Z,21.13
2019-03-02T00:10:17.440Z,21.10
2019-03-02T00:12:48.118Z,22.07
2019-03-02T00:15:18.743Z,21.47
2019-03-02T00:17:50.654Z,21.93
2019-03-02T00:20:21.847Z,20.80
2019-03-02T00:22:53.120Z,21.47
2019-03-02T00:25:23.732Z,19.77
2019-03-02T00:27:58.254Z,21.07
2019-03-02T00:30:26.808Z,22.00
2019-03-02T00:32:57.447Z,21.07
2019-03-02T00:35:28.062Z,20.23
2019-03-02T00:37:59.069Z,19.30
2019-03-02T00:40:30.403Z,19.73
2019-03-02T00:43:02.248Z,18.53
2019-03-02T00:45:32.984Z,19.93
2019-03-02T00:48:03.729Z,19.63
2019-03-02T00:50:36.551Z,19.37
2019-03-02T00:53:06.694Z,19.03
2019-03-02T00:55:37.369Z,20.23
2019-03-02T00:58:08.013Z,18.53
2019-03-02T01:00:39.812Z,18.60
2019-03-02T01:03:12.003Z,18.67
2019-03-02T01:05:43.148Z,19.10
2019-03-02T01:08:13.779Z,20.83
2019-03-02T01:10:45.177Z,18.77
2019-03-02T01:13:16.866Z,18.23
2019-03-02T01:15:48.814Z,17.93
2019-03-02T01:18:21.173Z,17.97
2019-03-02T01:20:51.928Z,19.17
2019-03-02T01:23:23.757Z,18.23
2019-03-02T01:25:55.609Z,18.77
2019-03-02T01:28:26.233Z,17.37
2019-03-02T01:30:56.909Z,18.90
2019-03-02T01:33:28.616Z,18.00
2019-03-02T01:35:59.996Z,18.00
2019-03-02T01:38:30.635Z,17.17
2019-03-02T01:41:01.395Z,17.50
2019-03-02T01:43:31.992Z,18.43
2019-03-02T01:46:03.315Z,17.23
2019-03-02T01:48:35.001Z,18.70
2019-03-02T01:51:05.644Z,18.00
2019-03-02T01:53:36.304Z,17.67
2019-03-02T01:56:07.093Z,17.30
2019-03-02T01:58:37.951Z,16.87
2019-03-02T02:01:08.596Z,17.37
2019-03-02T02:03:40.133Z,16.53
2019-03-02T02:06:10.954Z,16.40
2019-03-02T02:08:41.818Z,17.13
2019-03-02T02:11:14.545Z,17.10
2019-03-02T02:13:44.969Z,16.90
2019-03-02T02:16:15.688Z,15.23
2019-03-02T02:18:46.411Z,16.47
2019-03-02T02:21:17.041Z,17.93
2019-03-02T02:23:49.729Z,17.90
2019-03-02T02:26:20.097Z,16.40
2019-03-02T02:28:51.460Z,16.50
2019-03-02T02:31:22.252Z,17.97
2019-03-02T02:33:54.512Z,16.30
2019-03-02T02:36:25.178Z,17.43
2019-03-02T02:38:56.001Z,16.87
2019-03-02T02:41:26.803Z,16.13
2019-03-02T02:43:59.016Z,16.13
2019-03-02T02:46:32.623Z,16.17
2019-03-02T02:49:05.408Z,16.73
2019-03-02T02:51:35.234Z,15.57
2019-03-02T02:54:05.830Z,16.20
2019-03-02T02:56:36.485Z,15.00
2019-03-02T02:59:07.112Z,17.40
2019-03-02T03:01:38.377Z,15.67
2019-03-02T03:04:09.029Z,16.20
2019-03-02T03:06:41.016Z,14.83
2019-03-02T03:09:33.644Z,15.10
2019-03-02T03:12:04.401Z,14.87
2019-03-02T03:14:35.030Z,15.53
2019-03-02T03:17:05.684Z,15.40
2019-03-02T03:19:36.339Z,13.73
2019-03-02T03:22:09.197Z,15.40
2019-03-02T03:24:41.950Z,16.53
2019-03-02T03:27:13.336Z,15.77
2019-03-02T03:29:49.461Z,16.30
2019-03-02T03:32:17.346Z,15.97
2019-03-02T03:34:48.093Z,15.40
2019-03-02T03:37:18.739Z,14.70
2019-03-02T03:39:49.386Z,14.40
2019-03-02T03:42:23.067Z,14.47
2019-03-02T03:44:52.563Z,14.77
2019-03-02T03:47:26.271Z,15.93
2019-03-02T03:49:57.587Z,15.00
2019-03-02T03:52:28.306Z,15.77
2019-03-02T03:54:59.072Z,16.23
2019-03-02T03:57:45.948Z,15.67
2019-03-02T04:00:25.430Z,15.33
2019-03-02T04:02:59.727Z,15.13
2019-03-02T04:05:30.983Z,15.77
2019-03-02T04:08:04.579Z,15.37
2019-03-02T04:10:35.340Z,15.80
2019-03-02T04:13:06.466Z,15.33
2019-03-02T04:15:41.607Z,16.50
2019-03-02T04:19:05.152Z,16.20
2019-03-02T04:21:47.454Z,16.70
2019-03-02T04:24:18.120Z,17.03
2019-03-02T04:26:48.738Z,16.93
2019-03-02T04:29:21.963Z,16.47
2019-03-02T04:31:53.164Z,16.57
2019-03-02T04:34:23.812Z,15.67
2019-03-02T04:36:54.459Z,15.77
2019-03-02T04:39:25.121Z,15.37
2019-03-02T04:41:55.759Z,14.67
2019-03-02T04:44:29.608Z,14.20
2019-03-02T04:46:59.249Z,14.73
2019-03-02T04:49:29.932Z,14.60
2019-03-02T04:52:00.559Z,15.27
2019-03-02T04:54:37.397Z,14.27
2019-03-02T04:57:03.916Z,14.93
2019-03-02T04:59:34.585Z,14.90
2019-03-02T05:02:06.796Z,13.83
2019-03-02T05:04:37.429Z,14.73
2019-03-02T05:07:08.285Z,14.40
2019-03-02T05:09:39.790Z,14.17
2019-03-02T05:12:11.646Z,14.07
2019-03-02T05:14:42.820Z,13.00
2019-03-02T05:17:13.766Z,14.03
2019-03-02T05:19:44.470Z,13.63
2019-03-02T05:22:15.522Z,14.17
2019-03-02T05:24:47.539Z,13.63
2019-03-02T05:27:18.136Z,15.63
2019-03-02T05:29:50.820Z,14.17
2019-03-02T05:32:21.138Z,13.87
2019-03-02T05:34:52.752Z,13.73
2019-03-02T05:37:23.415Z,15.37
2019-03-02T05:39:55.163Z,14.00
2019-03-02T05:42:25.810Z,14.57
2019-03-02T05:44:56.596Z,14.50
2019-03-02T05:47:27.283Z,13.67
2019-03-02T05:49:59.173Z,12.97
2019-03-02T05:52:29.855Z,13.77
2019-03-02T05:55:01.599Z,13.13
2019-03-02T05:57:32.295Z,12.40
2019-03-02T06:00:03.588Z,11.93
2019-03-02T06:02:34.261Z,12.00
2019-03-02T06:05:05.756Z,12.83
2019-03-02T06:07:36.768Z,11.83
2019-03-02T06:10:08.519Z,13.03
2019-03-02T06:12:40.464Z,12.03
2019-03-02T06:15:11.813Z,17.77
2019-03-02T06:17:43.228Z,51.37
2019-03-02T06:20:14.127Z,29.93
2019-03-02T06:22:44.846Z,24.30
2019-03-02T06:25:20.690Z,81.87
2019-03-02T06:27:48.770Z,217.87
2019-03-02T06:30:19.873Z,254.40
2019-03-02T06:32:50.548Z,424.00
2019-03-02T06:35:21.246Z,289.47
2019-03-02T06:37:56.106Z,229.77
2019-03-02T06:40:25.140Z,217.60
2019-03-02T06:42:57.536Z,160.73
2019-03-02T06:45:28.658Z,136.63
2019-03-02T06:47:59.435Z,121.43
2019-03-02T06:50:35.661Z,89.27
2019-03-02T06:53:04.650Z,134.73
2019-03-02T06:55:35.306Z,118.57
2019-03-02T06:58:07.271Z,183.67
2019-03-02T07:00:57.115Z,143.17
2019-03-02T07:03:27.754Z,97.43
2019-03-02T07:05:58.421Z,118.43
2019-03-02T07:08:29.434Z,175.37
2019-03-02T07:11:01.589Z,172.63
2019-03-02T07:13:32.233Z,95.47
2019-03-02T07:16:02.944Z,98.73
2019-03-02T07:18:47.716Z,84.17
2019-03-02T07:21:18.461Z,89.97
2019-03-02T07:23:50.170Z,124.90
2019-03-02T07:26:21.001Z,160.17
2019-03-02T07:28:52.257Z,140.87
2019-03-02T07:31:23.572Z,88.03
2019-03-02T07:33:55.411Z,93.50
2019-03-02T07:36:28.036Z,58.07
2019-03-02T07:38:59.832Z,56.90
2019-03-02T07:41:30.491Z,95.43
2019-03-02T07:44:01.179Z,60.07
2019-03-02T07:46:31.846Z,18.87
2019-03-02T07:49:03.518Z,56.90
2019-03-02T07:51:37.862Z,52.47
2019-03-02T07:54:08.099Z,51.77
2019-03-02T07:56:38.862Z,22.27
2019-03-02T07:59:10.812Z,13.23
2019-03-02T08:01:42.638Z,16.30
2019-03-02T08:04:13.480Z,12.63
2019-03-02T08:06:44.387Z,11.93
2019-03-02T08:09:15.142Z,12.07
2019-03-02T08:11:49.041Z,14.43
2019-03-02T08:14:23.551Z,13.57
2019-03-02T08:16:55.943Z,11.97
2019-03-02T08:19:26.727Z,14.53
2019-03-02T08:21:57.471Z,12.47
2019-03-02T08:24:28.577Z,13.17
2019-03-02T08:26:59.261Z,12.80
2019-03-02T08:29:29.912Z,11.97
2019-03-02T08:32:00.722Z,11.70
2019-03-02T08:34:31.398Z,11.77
2019-03-02T08:37:02.182Z,11.30
2019-03-02T08:39:32.855Z,11.43
2019-03-02T08:42:03.499Z,11.53
2019-03-02T08:44:35.006Z,10.83
2019-03-02T08:47:18.417Z,9.43
2019-03-02T08:49:57.045Z,10.03
2019-03-02T08:52:41.610Z,9.93
2019-03-02T08:55:24.153Z,10.77
2019-03-02T08:58:05.269Z,10.77
2019-03-02T09:00:48.172Z,9.60
2019-03-02T09:03:30.218Z,11.00
2019-03-02T09:06:11.759Z,9.37
2019-03-02T09:08:42.967Z,10.43
2019-03-02T09:11:16.252Z,12.27
2019-03-02T09:13:55.252Z,12.57
2019-03-02T09:16:26.097Z,10.40
2019-03-02T09:18:56.745Z,9.80
2019-03-02T09:21:29.470Z,12.57
2019-03-02T09:24:00.237Z,10.03
2019-03-02T09:26:30.957Z,9.07
2019-03-02T09:29:01.776Z,9.50
2019-03-02T09:31:35.085Z,8.93
2019-03-02T09:34:05.083Z,8.40
2019-03-02T09:36:38.012Z,8.17
2019-03-02T09:39:10.306Z,8.07
2019-03-02T09:41:41.200Z,8.40
2019-03-02T09:44:14.506Z,8.50
2019-03-02T09:46:46.191Z,8.63
2019-03-02T09:49:17.635Z,9.37
2019-03-02T09:51:49.213Z,9.43
2019-03-02T09:54:20.216Z,8.53
2019-03-02T09:56:50.979Z,9.03
2019-03-02T09:59:21.707Z,8.80
2019-03-02T10:01:53.280Z,9.83
2019-03-02T10:04:24.065Z,8.70
2019-03-02T10:06:57.946Z,9.07
2019-03-02T10:09:27.258Z,9.23
2019-03-02T10:12:05.381Z,9.93
2019-03-02T10:14:36.363Z,9.43
2019-03-02T10:17:07.340Z,9.10
2019-03-02T10:19:39.119Z,9.63
2019-03-02T10:22:10.245Z,9.00
2019-03-02T10:24:41.837Z,8.90
2019-03-02T10:27:12.611Z,8.67
2019-03-02T10:29:44.384Z,8.17
2019-03-02T10:32:23.722Z,9.83
2019-03-02T10:34:55.502Z,8.23
2019-03-02T10:37:26.267Z,9.13
2019-03-02T10:39:56.932Z,9.23
2019-03-02T10:42:27.583Z,10.67
2019-03-02T10:44:59.818Z,10.13
2019-03-02T10:47:30.550Z,10.63
2019-03-02T10:50:02.617Z,11.37
2019-03-02T10:52:34.911Z,10.40
2019-03-02T10:55:08.435Z,10.77
2019-03-02T10:57:40.395Z,10.50
2019-03-02T11:00:17.574Z,10.17
2019-03-02T11:02:51.981Z,9.20
2019-03-02T11:05:53.004Z,10.23
2019-03-02T11:08:43.249Z,9.67
2019-03-02T11:11:33.586Z,10.77
2019-03-02T11:14:20.797Z,10.33
2019-03-02T11:17:23.105Z,9.83
2019-03-02T11:20:16.329Z,10.67
2019-03-02T11:23:20.003Z,10.70
2019-03-02T11:26:09.516Z,11.27
2019-03-02T11:28:58.418Z,10.23
2019-03-02T11:31:45.010Z,11.40
2019-03-02T11:34:44.803Z,9.80
2019-03-02T11:37:40.673Z,10.40
2019-03-02T11:40:20.063Z,9.43
2019-03-02T11:43:16.298Z,10.23
2019-03-02T11:46:02.966Z,10.57
2019-03-02T11:48:43.348Z,9.57
2019-03-02T11:51:45.079Z,10.33
2019-03-02T11:54:31.674Z,10.33
2019-03-02T11:57:27.237Z,12.17
2019-03-02T12:00:37.986Z,10.73
2019-03-02T12:03:42.097Z,9.40
2019-03-02T12:06:43.549Z,10.07
2019-03-02T12:09:45.383Z,9.60
2019-03-02T12:12:36.145Z,10.07
2019-03-02T12:15:18.944Z,10.20
2019-03-02T12:18:02.329Z,9.63
2019-03-02T12:21:10.568Z,9.77
2019-03-02T12:24:19.211Z,8.83
2019-03-02T12:27:07.922Z,9.00
2019-03-02T12:30:05.726Z,8.43
2019-03-02T12:32:46.691Z,9.03
2019-03-02T12:35:40.375Z,9.63
2019-03-02T12:38:27.576Z,8.20
2019-03-02T12:41:20.286Z,8.33
2019-03-02T12:44:17.458Z,9.97
2019-03-02T12:47:02.445Z,10.23
2019-03-02T12:49:43.986Z,11.17
2019-03-02T12:52:35.945Z,10.53
2019-03-02T12:55:34.785Z,11.30
2019-03-02T12:58:10.368Z,10.77
2019-03-02T13:00:59.185Z,10.77
2019-03-02T13:03:44.217Z,10.70
2019-03-02T13:06:52.378Z,10.00
2019-03-02T13:09:51.883Z,11.03
2019-03-02T13:12:42.507Z,10.60
2019-03-02T13:15:42.165Z,10.33
2019-03-02T13:18:30.506Z,9.00
2019-03-02T13:21:18.735Z,10.43
2019-03-02T13:24:19.177Z,9.07
2019-03-02T13:27:07.601Z,10.00
2019-03-02T13:30:12.409Z,10.07
2019-03-02T13:33:00.464Z,9.70
2019-03-02T13:36:00.547Z,9.63
2019-03-02T13:38:52.810Z,9.00
2019-03-02T13:41:48.209Z,8.80
2019-03-02T13:44:33.645Z,9.17
2019-03-02T13:47:32.227Z,9.23
2019-03-02T13:50:13.916Z,8.27
2019-03-02T13:53:08.251Z,8.00
2019-03-02T13:55:56.784Z,8.03
2019-03-02T13:58:46.319Z,9.00
2019-03-02T14:01:36.071Z,7.67
2019-03-02T14:04:29.329Z,8.13
2019-03-02T14:07:31.343Z,6.83
2019-03-02T14:10:15.931Z,7.53
2019-03-02T14:13:08.773Z,7.60
2019-03-02T14:15:48.623Z,7.77
2019-03-02T14:18:38.643Z,7.60
2019-03-02T14:21:28.209Z,7.80
2019-03-02T14:24:23.855Z,7.87
2019-03-02T14:27:13.414Z,8.33
2019-03-02T14:29:59.041Z,7.27
2019-03-02T14:32:40.469Z,7.43
2019-03-02T14:35:20.441Z,6.97
2019-03-02T14:38:20.219Z,7.60
2019-03-02T14:41:15.307Z,7.37
2019-03-02T14:44:01.436Z,7.10
2019-03-02T14:46:56.105Z,6.77
2019-03-02T14:49:46.851Z,8.07
2019-03-02T14:52:45.561Z,7.40
2019-03-02T14:55:34.927Z,7.83
2019-03-02T14:58:37.646Z,9.00
2019-03-02T15:01:26.936Z,7.73
2019-03-02T15:04:19.346Z,7.17
2019-03-02T15:07:07.638Z,8.73
2019-03-02T15:10:04.076Z,7.57
2019-03-02T15:12:53.859Z,8.20
2019-03-02T15:15:32.092Z,7.63
2019-03-02T15:18:28.811Z,8.13
2019-03-02T15:21:27.376Z,7.93
2019-03-02T15:24:25.763Z,8.00
2019-03-02T15:27:30.627Z,8.53
2019-03-02T15:30:09.889Z,7.87
2019-03-02T15:32:58.823Z,8.57
2019-03-02T15:35:47.180Z,8.43
2019-03-02T15:38:42.925Z,7.83
2019-03-02T15:41:32.498Z,8.80
2019-03-02T15:44:34.374Z,8.60
2019-03-02T15:47:25.579Z,8.27
2019-03-02T15:50:13.482Z,9.67
2019-03-02T15:53:03.708Z,8.40
2019-03-02T15:55:58.902Z,8.47
2019-03-02T15:59:03.837Z,8.20
2019-03-02T16:02:04.175Z,8.63
2019-03-02T16:04:54.750Z,7.83
2019-03-02T16:07:39.619Z,7.70
2019-03-02T16:10:30.057Z,8.03
2019-03-02T16:13:21.086Z,7.10
2019-03-02T16:16:24.873Z,7.80
2019-03-02T16:19:12.571Z,7.30
2019-03-02T16:22:05.953Z,7.73
2019-03-02T16:25:05.157Z,7.00
2019-03-02T16:28:06.003Z,7.53
2019-03-02T16:30:47.477Z,7.40
2019-03-02T16:33:37.433Z,6.63
2019-03-02T16:36:42.157Z,7.20
2019-03-02T16:39:30.675Z,8.47
2019-03-02T16:42:19.188Z,7.87
2019-03-02T16:45:24.028Z,6.83
2019-03-02T16:48:12.320Z,8.37
2019-03-02T16:51:08.073Z,7.80
2019-03-02T16:54:04.080Z,7.10
2019-03-02T16:57:05.976Z,6.93
2019-03-02T16:59:52.663Z,7.80
2019-03-02T17:02:51.061Z,7.00
2019-03-02T17:05:40.688Z,6.33
2019-03-02T17:08:23.275Z,6.27
2019-03-02T17:11:01.007Z,6.67
2019-03-02T17:13:40.607Z,6.10
2019-03-02T17:16:42.808Z,6.33
2019-03-02T17:19:28.351Z,7.00
2019-03-02T17:22:21.328Z,7.97
2019-03-02T17:25:05.739Z,8.10
2019-03-02T17:27:58.307Z,8.53
2019-03-02T17:30:49.742Z,8.20
2019-03-02T17:33:48.496Z,7.20
2019-03-02T17:36:30.934Z,8.23
2019-03-02T17:39:09.812Z,8.53
2019-03-02T17:41:51.338Z,8.50
2019-03-02T17:44:40.732Z,10.70
2019-03-02T17:47:29.286Z,10.53
2019-03-02T17:50:19.718Z,9.10
2019-03-02T17:53:11.263Z,10.03
2019-03-02T17:56:09.815Z,10.27
2019-03-02T17:58:56.918Z,12.13
2019-03-02T18:01:39.031Z,14.33
2019-03-02T18:04:31.905Z,14.20
2019-03-02T18:07:29.547Z,15.63
2019-03-02T18:10:34.079Z,12.90
2019-03-02T18:13:09.833Z,14.17
2019-03-02T18:16:12.275Z,13.77
2019-03-02T18:18:44.031Z,14.53
2019-03-02T18:21:15.081Z,18.27
2019-03-02T18:23:46.054Z,20.80
2019-03-02T18:26:20.658Z,17.87
2019-03-02T18:28:54.116Z,15.40
2019-03-02T18:31:22.984Z,15.60
2019-03-02T18:34:04.355Z,14.73
2019-03-02T18:36:41.428Z,18.87
2019-03-02T18:39:10.604Z,17.93
2019-03-02T18:41:42.007Z,14.87
2019-03-02T18:44:14.183Z,17.07
2019-03-02T18:46:45.609Z,18.70
2019-03-02T18:49:32.230Z,19.00
2019-03-02T18:52:10.776Z,20.47
2019-03-02T18:54:45.049Z,22.00
2019-03-02T18:57:15.153Z,24.27
2019-03-02T18:59:47.550Z,16.20
2019-03-02T19:02:18.459Z,15.87
2019-03-02T19:04:51.235Z,16.77
2019-03-02T19:07:21.913Z,22.00
2019-03-02T19:09:52.550Z,19.73
2019-03-02T19:12:23.308Z,18.67
2019-03-02T19:14:57.713Z,18.70
2019-03-02T19:17:26.374Z,19.97
2019-03-02T19:19:57.811Z,17.97
2019-03-02T19:22:28.455Z,17.80
2019-03-02T19:24:59.089Z,16.57
2019-03-02T19:27:29.808Z,15.60
2019-03-02T19:30:00.489Z,15.63
2019-03-02T19:32:31.188Z,17.07
2019-03-02T19:35:02.259Z,15.70
2019-03-02T19:37:32.889Z,16.20
2019-03-02T19:40:03.599Z,16.27
2019-03-02T19:42:34.260Z,15.17
2019-03-02T19:45:05.316Z,14.03
2019-03-02T19:47:35.966Z,13.37
2019-03-02T19:50:12.979Z,13.40
2019-03-02T19:52:43.868Z,11.57
2019-03-02T19:55:23.520Z,12.40
2019-03-02T19:57:54.334Z,13.10
2019-03-02T20:00:27.738Z,13.90
2019-03-02T20:02:58.395Z,14.40
2019-03-02T20:05:29.078Z,14.87
2019-03-02T20:08:00.207Z,14.73
2019-03-02T20:10:31.068Z,13.93
2019-03-02T20:13:01.793Z,14.70
2019-03-02T20:15:32.704Z,14.30
2019-03-02T20:18:04.188Z,15.10
2019-03-02T20:20:34.826Z,14.77
2019-03-02T20:23:05.520Z,15.53
2019-03-02T20:25:36.232Z,15.20
2019-03-02T20:28:07.027Z,26.47
2019-03-02T20:30:38.354Z,47.53
2019-03-02T20:33:09.096Z,38.60
2019-03-02T20:35:39.771Z,23.00
2019-03-02T20:38:10.520Z,32.90
2019-03-02T20:40:41.318Z,183.90
2019-03-02T20:43:11.992Z,92.47
2019-03-02T20:45:43.261Z,112.57
2019-03-02T20:48:14.105Z,124.23
2019-03-02T20:50:44.858Z,132.13
2019-03-02T20:53:15.487Z,92.93
2019-03-02T20:55:46.159Z,83.00
2019-03-02T20:58:16.905Z,110.47
2019-03-02T21:00:47.942Z,94.60
2019-03-02T21:03:18.763Z,118.10
2019-03-02T21:05:49.502Z,93.57
2019-03-02T21:08:20.313Z,121.73
2019-03-02T21:10:51.296Z,114.97
2019-03-02T21:13:22.032Z,115.33
2019-03-02T21:15:53.441Z,126.43
2019-03-02T21:18:24.329Z,125.53
2019-03-02T21:20:55.517Z,90.60
2019-03-02T21:23:26.442Z,91.43
2019-03-02T21:25:58.753Z,104.43
2019-03-02T21:28:30.122Z,169.40
2019-03-02T21:31:00.846Z,260.93
2019-03-02T21:33:31.577Z,237.13
2019-03-02T21:36:02.562Z,269.80
2019-03-02T21:38:33.320Z,230.30
2019-03-02T21:41:04.504Z,178.23
2019-03-02T21:43:35.180Z,149.80
2019-03-02T21:46:06.011Z,120.10
2019-03-02T21:48:36.755Z,94.40
2019-03-02T21:51:09.139Z,87.77
2019-03-02T21:53:40.231Z,64.70
2019-03-02T21:56:11.808Z,94.43
2019-03-02T21:58:42.744Z,74.50
2019-03-02T22:01:15.707Z,93.53
2019-03-02T22:03:46.411Z,103.50
2019-03-02T22:06:18.016Z,115.00
2019-03-02T22:08:48.679Z,69.93
2019-03-02T22:11:19.407Z,74.80
2019-03-02T22:13:50.122Z,56.10
2019-03-02T22:16:22.182Z,42.60
2019-03-02T22:18:52.822Z,45.07
2019-03-02T22:21:23.590Z,44.70
2019-03-02T22:23:54.340Z,43.97
2019-03-02T22:26:25.082Z,40.97
2019-03-02T22:28:56.433Z,39.07
2019-03-02T22:31:27.947Z,34.33
2019-03-02T22:33:59.112Z,29.10
2019-03-02T22:36:29.797Z,27.60
2019-03-02T22:39:00.990Z,27.13
2019-03-02T22:41:31.657Z,25.10
2019-03-02T22:44:02.503Z,25.27
2019-03-02T22:46:33.156Z,25.60
2019-03-02T22:49:03.922Z,26.00
2019-03-02T22:51:35.559Z,24.00
2019-03-02T22:54:06.240Z,25.43
2019-03-02T22:56:36.907Z,25.73
2019-03-02T22:59:06.519Z,25.50
2019-03-02T23:02:20.922Z,25.87
2019-03-02T23:04:51.556Z,26.60
2019-03-02T23:07:22.210Z,27.07
2019-03-02T23:09:52.829Z,24.73
2019-03-02T23:12:23.503Z,25.17
2019-03-02T23:14:54.132Z,24.63
2019-03-02T23:17:24.871Z,24.17
2019-03-02T23:19:56.282Z,24.87
2019-03-02T23:22:27.066Z,24.57
2019-03-02T23:24:57.760Z,25.60
2019-03-02T23:27:28.438Z,24.93
2019-03-02T23:29:59.246Z,23.00
2019-03-02T23:32:29.957Z,23.27
2019-03-02T23:35:01.708Z,25.70
2019-03-02T23:37:37.893Z,23.07
2019-03-02T23:40:08.725Z,23.80
2019-03-02T23:42:40.306Z,24.60
2019-03-02T23:45:14.091Z,25.23
2019-03-02T23:47:44.772Z,24.13
2019-03-02T23:50:15.722Z,22.53
2019-03-02T23:52:46.754Z,22.90
2019-03-02T23:55:17.387Z,23.50
2019-03-02T23:57:48.429Z,23.13
